Time;durP1;ratioP1;P1;durP2;ratioP2;P2;SDS_P1;SDS_P2;PMS_P1;PMS_P2;Temp;Humidity;BMP_temperature;BMP_pressure;BME280_temperature;BME280_humidity;BME280_pressure;Samples;Min_cycle;Max_cycle;Signal;HPM_P1;HPM_P2
2022/10/17 04:00:14;;;;;;;12.83;7.93;;;14.10;99.90;;;;;;6064871;23;20408;31
2022/10/17 04:02:43;;;;;;;11.13;8.50;;;14.00;99.90;;;;;;4898011;29;20465;-65
2022/10/17 04:05:10;;;;;;;11.93;8.03;;;14.00;99.90;;;;;;4899315;29;20450;-66
2022/10/17 04:07:37;;;;;;;8.23;7.40;;;14.00;99.90;;;;;;4899113;29;20529;-65
2022/10/17 04:10:04;;;;;;;8.63;7.17;;;14.00;99.90;;;;;;4899154;29;20541;-66
2022/10/17 04:12:30;;;;;;;9.10;6.83;;;14.00;99.90;;;;;;4917745;29;20477;-65
2022/10/17 04:14:57;;;;;;;7.47;6.77;;;14.10;99.90;;;;;;4917801;29;20492;-65
2022/10/17 04:17:25;;;;;;;12.37;7.53;;;14.10;99.90;;;;;;4918855;29;20513;-65
2022/10/17 04:19:52;;;;;;;14.07;6.67;;;14.10;99.90;;;;;;4917664;29;20499;-65
2022/10/17 04:22:18;;;;;;;8.77;7.20;;;14.20;99.90;;;;;;4917603;29;20888;-65
2022/10/17 04:24:45;;;;;;;10.90;7.10;;;14.20;99.90;;;;;;4917868;29;20454;-65
2022/10/17 04:27:12;;;;;;;7.60;6.33;;;14.20;99.90;;;;;;4917740;29;20516;-65
2022/10/17 04:29:38;;;;;;;14.90;7.30;;;14.20;99.90;;;;;;4917783;29;20461;-65
2022/10/17 04:32:05;;;;;;;11.87;7.00;;;14.20;99.90;;;;;;4917565;29;20473;-66
2022/10/17 04:34:33;;;;;;;10.93;7.30;;;14.20;99.90;;;;;;4917553;29;20513;-66
2022/10/17 04:37:00;;;;;;;11.63;7.03;;;14.20;99.90;;;;;;4917709;29;20520;-65
2022/10/17 04:39:26;;;;;;;8.70;6.57;;;14.20;99.90;;;;;;4917600;29;20909;-65
2022/10/17 04:41:55;;;;;;;7.60;6.87;;;14.20;99.90;;;;;;4917445;29;20552;-66
2022/10/17 04:44:21;;;;;;;19.03;6.30;;;14.20;99.90;;;;;;4917529;29;20612;-66
2022/10/17 04:46:48;;;;;;;10.40;6.30;;;14.30;99.90;;;;;;4917491;29;20881;-66
2022/10/17 04:49:15;;;;;;;8.47;7.07;;;14.20;99.90;;;;;;4917454;29;20517;-66
2022/10/17 04:51:43;;;;;;;7.43;6.63;;;14.20;99.90;;;;;;4917387;29;20536;-66
2022/10/17 04:54:09;;;;;;;8.87;6.60;;;14.20;99.90;;;;;;4917043;29;20945;-65
2022/10/17 04:56:36;;;;;;;7.27;6.53;;;14.20;99.90;;;;;;4918085;29;20477;-65
2022/10/17 04:59:03;;;;;;;9.07;6.70;;;14.20;99.90;;;;;;4917190;29;20520;-64
2022/10/17 05:01:30;;;;;;;7.97;7.17;;;14.20;99.90;;;;;;4917050;29;20992;-65
2022/10/17 05:03:56;;;;;;;8.03;7.13;;;14.10;99.90;;;;;;4917553;29;20521;-65
2022/10/17 05:06:24;;;;;;;8.87;6.57;;;14.10;99.90;;;;;;4917532;29;20461;-65
2022/10/17 05:08:53;;;;;;;9.50;7.80;;;14.10;99.90;;;;;;4917500;29;20494;-65
2022/10/17 05:11:21;;;;;;;8.43;7.67;;;14.10;99.90;;;;;;4917216;29;20824;-65
2022/10/17 05:13:52;;;;;;;7.47;6.50;;;14.10;99.90;;;;;;4917601;29;20529;-65
2022/10/17 05:16:19;;;;;;;12.80;8.20;;;14.10;99.90;;;;;;4918682;29;20993;-66
2022/10/17 05:18:48;;;;;;;10.63;7.40;;;14.10;99.90;;;;;;4919242;29;20457;-66
2022/10/17 05:21:15;;;;;;;9.63;7.50;;;14.10;99.90;;;;;;4919807;29;20509;-66
2022/10/17 05:23:42;;;;;;;11.33;7.10;;;14.10;99.90;;;;;;4920910;29;20465;-66
2022/10/17 05:26:10;;;;;;;11.43;6.73;;;14.10;99.90;;;;;;4920602;29;20940;-66
2022/10/17 05:28:37;;;;;;;16.90;6.80;;;14.10;99.90;;;;;;4921356;29;20872;-66
2022/10/17 05:31:04;;;;;;;9.27;7.10;;;14.20;99.90;;;;;;4921438;29;20666;-65
2022/10/17 05:33:30;;;;;;;7.50;6.80;;;14.20;99.90;;;;;;4920890;29;20461;-65
2022/10/17 05:35:58;;;;;;;7.50;6.80;;;14.20;99.90;;;;;;4920734;29;20481;-65
2022/10/17 05:38:24;;;;;;;7.30;6.60;;;14.20;99.90;;;;;;4920693;29;20851;-66
2022/10/17 05:40:51;;;;;;;7.07;6.33;;;14.30;99.90;;;;;;4920667;29;20504;-66
2022/10/17 05:43:19;;;;;;;8.90;7.10;;;14.30;99.90;;;;;;4920468;29;20536;-65
2022/10/17 05:45:46;;;;;;;9.60;6.63;;;14.30;99.90;;;;;;4920451;29;20462;-65
2022/10/17 05:48:13;;;;;;;10.03;6.73;;;14.30;99.90;;;;;;4920129;29;20953;-65
2022/10/17 05:50:40;;;;;;;10.67;7.63;;;14.30;99.90;;;;;;4920268;29;20481;-65
2022/10/17 05:53:06;;;;;;;7.13;6.43;;;14.40;99.90;;;;;;4922933;29;20457;-65
2022/10/17 05:55:33;;;;;;;10.77;6.87;;;14.30;99.90;;;;;;4921322;29;20481;-65
2022/10/17 05:58:00;;;;;;;9.33;7.80;;;14.30;99.90;;;;;;4920494;29;20461;-65
2022/10/17 06:00:28;;;;;;;11.00;7.20;;;14.30;99.90;;;;;;4920011;29;20579;-65
2022/10/17 06:02:55;;;;;;;11.17;7.23;;;14.20;99.90;;;;;;4919999;29;20575;-66
2022/10/17 06:05:22;;;;;;;9.83;6.73;;;14.20;99.90;;;;;;4919951;29;20469;-65
2022/10/17 06:07:51;;;;;;;12.47;7.30;;;14.20;99.90;;;;;;4920028;29;20517;-66
2022/10/17 06:10:18;;;;;;;11.73;7.90;;;14.20;99.90;;;;;;4919940;29;20469;-65
2022/10/17 06:12:45;;;;;;;11.03;6.80;;;14.10;99.90;;;;;;4919801;29;20465;-65
2022/10/17 06:15:13;;;;;;;10.47;7.00;;;14.20;99.90;;;;;;4919559;29;20517;-65
2022/10/17 06:17:41;;;;;;;11.60;6.80;;;14.20;99.90;;;;;;4919612;29;20457;-66
2022/10/17 06:20:08;;;;;;;8.00;7.30;;;14.20;99.90;;;;;;4921028;29;20520;-66
2022/10/17 06:22:35;;;;;;;11.27;7.57;;;14.30;99.90;;;;;;4919505;29;20477;-65
2022/10/17 06:25:02;;;;;;;8.23;6.80;;;14.20;99.90;;;;;;4919450;29;20513;-66
2022/10/17 06:27:28;;;;;;;15.60;7.53;;;14.20;99.90;;;;;;4919332;29;20517;-65
2022/10/17 06:29:55;;;;;;;9.43;7.13;;;14.30;99.90;;;;;;4922428;29;20464;-65
2022/10/17 06:32:22;;;;;;;7.60;6.90;;;14.20;99.90;;;;;;4919273;29;20485;-65
2022/10/17 06:34:50;;;;;;;12.20;7.27;;;14.30;99.90;;;;;;4919124;29;20809;-65
2022/10/17 06:37:16;;;;;;;10.07;7.90;;;14.30;99.90;;;;;;4919375;29;20504;-65
2022/10/17 06:39:43;;;;;;;8.47;7.60;;;14.30;99.90;;;;;;4920177;29;20457;-66
2022/10/17 06:42:09;;;;;;;12.17;7.80;;;14.30;99.90;;;;;;4919281;29;20480;-65
2022/10/17 06:44:36;;;;;;;7.17;6.47;;;14.30;99.90;;;;;;4919837;29;20457;-65
2022/10/17 06:47:03;;;;;;;7.10;6.43;;;14.40;99.90;;;;;;4918515;29;20865;-65
2022/10/17 06:49:31;;;;;;;8.30;5.43;;;14.70;99.90;;;;;;4918912;29;20513;-65
2022/10/17 06:51:58;;;;;;;6.03;4.73;;;15.10;99.90;;;;;;4918906;29;20484;-65
2022/10/17 06:54:26;;;;;;;11.20;5.03;;;15.70;99.90;;;;;;4918906;29;20516;-65
2022/10/17 06:56:54;;;;;;;12.77;4.43;;;16.50;99.90;;;;;;4918842;29;20572;-65
2022/10/17 06:59:21;;;;;;;7.93;4.20;;;17.30;99.90;;;;;;4918953;29;20555;-65
2022/10/17 07:01:48;;;;;;;10.13;4.00;;;18.10;99.90;;;;;;4918489;29;20493;-65
2022/10/17 07:04:15;;;;;;;5.87;3.63;;;19.00;99.90;;;;;;4918814;29;21014;-66
2022/10/17 07:06:41;;;;;;;3.23;3.00;;;20.00;99.90;;;;;;4918374;29;20870;-66
2022/10/17 07:09:09;;;;;;;4.17;2.73;;;20.90;99.90;;;;;;4918668;29;20860;-66
2022/10/17 07:11:36;;;;;;;7.73;4.13;;;21.60;99.90;;;;;;4918629;29;20476;-65
2022/10/17 07:14:03;;;;;;;9.73;3.60;;;22.30;99.90;;;;;;4918534;29;20457;-66
2022/10/17 07:16:29;;;;;;;8.90;3.40;;;22.90;99.90;;;;;;4918450;29;20482;-66
2022/10/17 07:18:56;;;;;;;11.17;4.23;;;23.40;99.90;;;;;;4918391;29;20509;-66
2022/10/17 07:21:23;;;;;;;6.90;3.73;;;23.80;99.90;;;;;;4918573;29;20477;-66
2022/10/17 07:23:49;;;;;;;7.43;4.43;;;24.60;99.90;;;;;;4918335;29;20457;-66
2022/10/17 07:26:19;;;;;;;4.67;3.77;;;24.90;99.90;;;;;;4918476;29;20505;-66
2022/10/17 07:28:47;;;;;;;4.93;3.73;;;25.30;99.90;;;;;;4922823;29;20573;-66
2022/10/17 07:31:17;;;;;;;9.20;4.33;;;25.60;99.90;;;;;;4923092;29;20988;-66
2022/10/17 07:33:45;;;;;;;9.53;4.53;;;25.90;99.90;;;;;;4923442;29;20453;-66
2022/10/17 07:36:12;;;;;;;10.90;4.47;;;26.40;99.90;;;;;;4923632;29;20988;-66
2022/10/17 07:38:39;;;;;;;7.57;4.60;;;26.90;99.90;;;;;;4922080;29;20516;-66
2022/10/17 07:41:08;;;;;;;5.73;5.23;;;26.70;99.90;;;;;;4918254;29;20523;-66
2022/10/17 07:43:36;;;;;;;6.17;4.63;;;27.00;98.50;;;;;;4918037;29;20548;-66
2022/10/17 07:46:04;;;;;;;8.33;4.33;;;27.00;97.20;;;;;;4918285;29;20467;-66
2022/10/17 07:48:31;;;;;;;9.50;4.63;;;27.10;97.70;;;;;;4918027;29;20954;-67
2022/10/17 07:51:01;;;;;;;7.20;4.63;;;27.10;96.60;;;;;;4918371;29;20895;-66
2022/10/17 07:53:28;;;;;;;8.73;4.90;;;27.20;96.90;;;;;;4918482;29;20457;-65
2022/10/17 07:55:54;;;;;;;4.73;4.33;;;27.50;96.40;;;;;;4918408;29;20531;-66
2022/10/17 07:58:21;;;;;;;10.07;4.47;;;27.50;95.20;;;;;;4918662;29;20457;-66
2022/10/17 08:00:49;;;;;;;5.20;4.33;;;27.30;96.30;;;;;;4918020;29;20488;-67
2022/10/17 08:03:16;;;;;;;11.47;4.70;;;27.70;95.90;;;;;;4918543;29;20552;-66
2022/10/17 08:05:43;;;;;;;12.93;5.47;;;28.20;94.60;;;;;;4919605;29;20453;-67
2022/10/17 08:08:09;;;;;;;8.80;4.47;;;28.40;94.10;;;;;;4917819;29;20465;-67
2022/10/17 08:10:37;;;;;;;9.73;4.10;;;28.70;92.80;;;;;;4917129;29;20992;-66
2022/10/17 08:13:03;;;;;;;5.80;4.00;;;28.90;92.50;;;;;;4918575;29;20458;-68
2022/10/17 08:15:30;;;;;;;12.80;4.73;;;29.20;91.90;;;;;;4927840;29;20453;-67
2022/10/17 08:17:58;;;;;;;8.70;4.00;;;29.60;91.20;;;;;;4927413;29;20516;-68
2022/10/17 08:20:25;;;;;;;11.13;4.67;;;29.90;87.90;;;;;;4917692;29;20505;-66
2022/10/17 08:22:52;;;;;;;6.50;4.93;;;29.90;87.30;;;;;;4917303;29;20468;-66
2022/10/17 08:25:19;;;;;;;7.80;4.10;;;30.00;86.30;;;;;;4917162;29;20457;-66
2022/10/17 08:27:46;;;;;;;4.30;3.83;;;30.10;84.70;;;;;;4917116;29;20453;-66
2022/10/17 08:30:13;;;;;;;4.13;3.77;;;30.40;85.20;;;;;;4916835;29;20465;-66
2022/10/17 08:32:40;;;;;;;4.97;3.50;;;30.40;84.50;;;;;;4916700;29;20971;-66
2022/10/17 08:35:08;;;;;;;6.83;3.20;;;30.30;80.60;;;;;;4917086;29;20461;-66
2022/10/17 08:37:36;;;;;;;7.37;3.47;;;29.90;83.40;;;;;;4916478;29;20517;-66
2022/10/17 08:40:03;;;;;;;13.97;3.33;;;29.90;86.00;;;;;;4916831;29;20485;-67
2022/10/17 08:42:54;;;;;;;4.13;3.23;;;30.10;81.10;;;;;;4916846;29;20513;-66
2022/10/17 08:45:27;;;;;;;10.50;3.57;;;30.00;79.10;;;;;;4916964;29;20430;-67
2022/10/17 08:47:58;;;;;;;3.17;2.73;;;30.20;81.50;;;;;;4916690;29;20778;-66
2022/10/17 08:50:34;;;;;;;8.17;3.17;;;30.10;80.00;;;;;;4916739;29;20433;-66
2022/10/17 08:53:05;;;;;;;8.87;3.23;;;30.00;80.60;;;;;;4916591;29;20849;-66
2022/10/17 08:55:36;;;;;;;3.33;2.90;;;30.10;78.10;;;;;;4917651;29;20510;-68
2022/10/17 08:58:03;;;;;;;6.53;3.40;;;30.10;79.20;;;;;;4920040;29;20536;-66
2022/10/17 09:00:32;;;;;;;6.27;2.80;;;30.40;80.40;;;;;;4916162;29;100851;-67
2022/10/17 09:03:15;;;;;;;4.30;2.67;;;30.40;79.20;;;;;;4920186;29;20501;-68
2022/10/17 09:05:50;;;;;;;4.43;2.73;;;30.30;79.90;;;;;;4920980;29;20442;-66
2022/10/17 09:08:28;;;;;;;6.80;2.97;;;30.10;78.60;;;;;;4920946;29;20837;-66
2022/10/17 09:10:58;;;;;;;3.40;2.57;;;30.40;77.10;;;;;;4920549;29;20830;-67
2022/10/17 09:13:37;;;;;;;6.63;2.93;;;30.50;76.90;;;;;;4920493;29;21024;-66
2022/10/17 09:16:29;;;;;;;3.70;2.87;;;30.60;78.90;;;;;;4921147;29;20473;-66
2022/10/17 09:19:02;;;;;;;7.00;3.13;;;30.50;76.10;;;;;;4920722;29;21007;-66
2022/10/17 09:21:43;;;;;;;6.93;3.00;;;30.30;77.90;;;;;;4921567;29;20520;-67
2022/10/17 09:24:16;;;;;;;6.97;2.77;;;29.90;78.90;;;;;;4921399;29;20463;-66
2022/10/17 09:26:44;;;;;;;5.13;2.77;;;29.50;78.90;;;;;;4921452;29;20497;-67
2022/10/17 09:29:17;;;;;;;3.87;2.23;;;29.00;79.00;;;;;;4920735;29;20875;-67
2022/10/17 09:31:49;;;;;;;7.20;2.60;;;28.70;81.70;;;;;;4920037;29;20985;-68
2022/10/17 09:34:16;;;;;;;5.67;2.70;;;28.70;83.00;;;;;;4920700;29;20505;-67
2022/10/17 09:36:44;;;;;;;2.63;2.00;;;28.90;83.90;;;;;;4920468;29;20489;-66
2022/10/17 09:39:13;;;;;;;4.03;2.20;;;29.20;82.40;;;;;;4920973;29;20461;-66
2022/10/17 09:41:42;;;;;;;2.50;2.30;;;29.00;82.50;;;;;;4920284;29;20540;-67
2022/10/17 09:44:18;;;;;;;9.00;2.50;;;29.00;83.10;;;;;;4920813;29;20809;-67
2022/10/17 09:46:55;;;;;;;6.93;2.43;;;28.70;82.40;;;;;;4920219;29;20445;-67
2022/10/17 09:49:28;;;;;;;3.90;2.80;;;28.50;83.30;;;;;;4920352;29;20500;-68
2022/10/17 09:51:56;;;;;;;5.43;2.57;;;28.40;84.70;;;;;;4920140;29;20984;-67
2022/10/17 09:54:28;;;;;;;10.50;2.67;;;28.60;85.00;;;;;;4920769;29;20512;-66
2022/10/17 09:57:00;;;;;;;4.03;2.20;;;28.90;84.00;;;;;;4920179;29;20466;-67
2022/10/17 09:59:35;;;;;;;6.43;2.37;;;29.20;84.50;;;;;;4919942;29;20528;-67
2022/10/17 10:02:16;;;;;;;5.73;2.53;;;29.80;83.30;;;;;;4920146;29;20489;-67
2022/10/17 10:04:57;;;;;;;3.17;1.90;;;30.30;79.00;;;;;;4920276;29;20501;-67
2022/10/17 10:07:27;;;;;;;2.63;2.43;;;30.30;77.60;;;;;;4919742;29;20901;-66
2022/10/17 10:09:54;;;;;;;3.93;2.43;;;30.40;77.00;;;;;;4920030;29;20516;-66
2022/10/17 10:12:23;;;;;;;3.73;2.10;;;30.70;76.60;;;;;;4919928;29;20834;-67
2022/10/17 10:14:50;;;;;;;3.43;2.07;;;31.00;76.50;;;;;;4921127;29;20464;-66
2022/10/17 10:17:36;;;;;;;5.93;2.47;;;31.30;74.30;;;;;;4921179;29;20603;-67
2022/10/17 10:20:28;;;;;;;2.30;2.10;;;31.30;75.30;;;;;;4919786;29;20508;-67
2022/10/17 10:23:14;;;;;;;10.10;2.30;;;31.40;73.90;;;;;;4919369;29;20909;-67
2022/10/17 10:25:53;;;;;;;2.90;2.70;;;30.70;75.70;;;;;;4919785;29;20446;-67
2022/10/17 10:28:20;;;;;;;3.00;2.43;;;30.50;77.20;;;;;;4919568;29;20442;-67
2022/10/17 10:30:50;;;;;;;4.30;3.23;;;30.50;78.10;;;;;;4919549;29;20477;-67
2022/10/17 10:33:19;;;;;;;13.47;5.50;;;30.40;78.60;;;;;;4919949;29;20469;-67
2022/10/17 10:35:54;;;;;;;2.87;2.57;;;30.60;79.80;;;;;;4919673;29;20457;-67
2022/10/17 10:38:22;;;;;;;4.33;2.63;;;30.70;78.40;;;;;;4919351;29;20473;-67
2022/10/17 10:40:50;;;;;;;6.00;2.93;;;30.70;77.20;;;;;;4919279;29;20505;-67
2022/10/17 10:43:23;;;;;;;4.00;2.50;;;30.90;78.40;;;;;;4919263;29;20457;-67
2022/10/17 10:45:52;;;;;;;3.33;2.50;;;31.00;77.10;;;;;;4919483;29;20497;-67
2022/10/17 10:48:21;;;;;;;2.70;2.50;;;30.80;77.70;;;;;;4921522;29;20866;-67
2022/10/17 10:50:51;;;;;;;4.33;2.90;;;30.70;78.30;;;;;;4921200;29;20478;-67
2022/10/17 10:53:32;;;;;;;5.60;2.87;;;30.40;77.70;;;;;;4920269;29;20508;-67
2022/10/17 10:56:01;;;;;;;9.70;3.00;;;30.20;78.30;;;;;;4920100;29;20438;-66
2022/10/17 10:58:37;;;;;;;7.57;3.43;;;29.90;80.80;;;;;;4919954;29;20540;-67
2022/10/17 11:01:11;;;;;;;7.90;3.30;;;29.50;80.00;;;;;;4919614;29;20520;-67
2022/10/17 11:03:42;;;;;;;4.57;3.10;;;29.20;82.50;;;;;;4921235;29;20501;-67
2022/10/17 11:06:16;;;;;;;11.93;2.50;;;29.20;84.70;;;;;;4925177;29;20478;-66
2022/10/17 11:08:49;;;;;;;9.50;3.20;;;29.00;84.50;;;;;;4927646;29;20501;-66
2022/10/17 11:11:26;;;;;;;3.90;2.80;;;28.80;84.70;;;;;;4926937;29;20965;-66
2022/10/17 11:13:58;;;;;;;3.70;2.57;;;28.80;84.10;;;;;;4930860;29;20465;-66
2022/10/17 11:16:32;;;;;;;3.27;3.07;;;28.60;83.90;;;;;;4927863;29;20442;-67
2022/10/17 11:19:06;;;;;;;4.10;3.40;;;28.60;87.10;;;;;;4919930;29;20448;-67
2022/10/17 11:21:41;;;;;;;10.30;2.53;;;28.60;87.00;;;;;;4920226;29;20874;-67
2022/10/17 11:24:16;;;;;;;6.47;3.07;;;28.50;86.50;;;;;;4919626;29;20441;-66
2022/10/17 11:26:50;;;;;;;3.80;3.40;;;28.30;85.60;;;;;;4920297;29;20488;-67
2022/10/17 11:29:16;;;;;;;2.63;2.53;;;28.40;85.70;;;;;;4922759;29;20916;-66
2022/10/17 11:31:49;;;;;;;5.93;2.67;;;28.40;85.30;;;;;;4925553;29;20530;-66
2022/10/17 11:34:23;;;;;;;3.70;2.67;;;28.50;85.40;;;;;;4918688;29;20473;-67
2022/10/17 11:36:52;;;;;;;6.40;2.50;;;28.50;89.20;;;;;;4918571;29;20469;-67
2022/10/17 11:39:27;;;;;;;5.93;2.40;;;28.50;86.10;;;;;;4918882;29;20512;-66
2022/10/17 11:41:57;;;;;;;3.67;2.67;;;28.60;86.70;;;;;;4918598;29;20991;-68
2022/10/17 11:44:28;;;;;;;9.10;2.50;;;28.60;85.90;;;;;;4918559;29;21012;-67
2022/10/17 11:47:00;;;;;;;3.87;2.50;;;28.60;84.60;;;;;;4918953;29;20442;-66
2022/10/17 11:49:30;;;;;;;6.10;2.40;;;28.60;87.70;;;;;;4918915;29;20877;-67
2022/10/17 11:52:05;;;;;;;2.77;2.50;;;28.70;84.00;;;;;;4918435;29;20473;-67
2022/10/17 11:54:39;;;;;;;5.90;2.70;;;28.70;85.10;;;;;;4918299;29;20445;-67
2022/10/17 11:57:34;;;;;;;3.00;2.80;;;28.80;89.80;;;;;;4918935;29;20469;-68
2022/10/17 12:00:21;;;;;;;3.20;2.90;;;28.90;84.90;;;;;;4918980;29;20452;-67
2022/10/17 12:02:57;;;;;;;7.73;3.10;;;29.00;87.30;;;;;;4918260;29;20436;-66
2022/10/17 12:05:31;;;;;;;3.23;2.50;;;29.10;82.40;;;;;;4918454;29;20843;-67
2022/10/17 12:08:05;;;;;;;3.33;2.30;;;29.30;84.90;;;;;;4920578;29;20433;-67
2022/10/17 12:10:45;;;;;;;5.10;2.83;;;29.30;86.20;;;;;;4919860;29;20442;-66
2022/10/17 12:13:47;;;;;;;7.20;2.97;;;29.30;85.60;;;;;;4922986;29;20447;-67
2022/10/17 12:16:41;;;;;;;2.87;2.57;;;29.40;86.80;;;;;;4919736;29;20519;-67
2022/10/17 12:19:32;;;;;;;5.93;2.33;;;29.50;86.50;;;;;;4912696;29;20500;-67
2022/10/17 12:22:03;;;;;;;4.03;2.20;;;29.60;83.70;;;;;;4915279;29;20487;-67
2022/10/17 12:24:38;;;;;;;4.17;2.10;;;29.70;84.00;;;;;;4918823;29;20448;-67
2022/10/17 12:27:36;;;;;;;6.07;2.30;;;29.80;83.20;;;;;;4918109;29;20489;-67
2022/10/17 12:30:14;;;;;;;2.23;2.07;;;30.00;82.20;;;;;;4920263;29;20501;-67
2022/10/17 12:32:58;;;;;;;4.80;2.37;;;30.10;80.80;;;;;;4922804;29;20441;-67
2022/10/17 12:35:27;;;;;;;4.77;1.80;;;30.20;80.80;;;;;;4921950;29;20438;-67
2022/10/17 12:38:02;;;;;;;5.23;2.33;;;30.30;81.30;;;;;;4921549;29;20487;-67
2022/10/17 12:40:52;;;;;;;2.17;1.90;;;30.40;81.80;;;;;;4921639;29;20457;-67
2022/10/17 12:43:47;;;;;;;6.80;2.20;;;30.20;82.00;;;;;;4921830;29;20449;-66
2022/10/17 12:46:35;;;;;;;4.60;2.47;;;30.20;81.60;;;;;;4921426;29;21034;-67
2022/10/17 12:49:04;;;;;;;2.50;2.27;;;30.20;85.90;;;;;;4921776;29;20442;-67
2022/10/17 12:52:14;;;;;;;6.23;2.57;;;30.30;82.20;;;;;;4921639;29;20594;-67
2022/10/17 12:54:43;;;;;;;3.00;1.97;;;30.00;81.20;;;;;;4921472;29;20839;-66
2022/10/17 12:57:17;;;;;;;3.60;2.10;;;29.70;80.60;;;;;;4921525;29;20549;-68
2022/10/17 12:59:44;;;;;;;2.53;2.07;;;29.60;82.20;;;;;;4921590;29;20453;-68
2022/10/17 13:02:19;;;;;;;3.60;1.70;;;29.30;84.00;;;;;;4921694;29;20973;-66
2022/10/17 13:04:46;;;;;;;4.03;2.30;;;29.20;84.00;;;;;;4921100;29;20457;-66
2022/10/17 13:07:20;;;;;;;3.10;2.33;;;29.10;81.40;;;;;;4921177;29;20527;-67
2022/10/17 13:09:48;;;;;;;4.93;2.20;;;29.00;83.90;;;;;;4921390;29;20452;-67
2022/10/17 13:12:21;;;;;;;3.73;2.10;;;28.80;81.10;;;;;;4921782;29;20477;-67
2022/10/17 13:14:51;;;;;;;4.80;2.47;;;28.60;81.90;;;;;;4921164;29;20452;-67
2022/10/17 13:17:24;;;;;;;3.93;2.13;;;28.50;83.00;;;;;;4920712;29;20540;-66
2022/10/17 13:19:51;;;;;;;4.93;2.20;;;28.50;83.30;;;;;;4920871;29;20525;-67
2022/10/17 13:22:21;;;;;;;4.90;2.40;;;28.40;83.10;;;;;;4921045;29;20485;-67
2022/10/17 13:24:49;;;;;;;2.30;2.10;;;28.20;83.10;;;;;;4921734;29;20449;-67
2022/10/17 13:27:25;;;;;;;2.90;2.33;;;28.10;84.00;;;;;;4922202;29;20461;-66
2022/10/17 13:29:52;;;;;;;4.93;2.70;;;28.10;85.30;;;;;;4920683;29;20441;-67
2022/10/17 13:32:18;;;;;;;3.30;2.20;;;28.00;86.90;;;;;;4920701;29;20992;-67
2022/10/17 13:34:45;;;;;;;2.50;2.27;;;28.00;89.90;;;;;;4920406;29;20461;-67
2022/10/17 13:37:15;;;;;;;2.50;2.30;;;27.90;86.20;;;;;;4920276;29;20461;-66
2022/10/17 13:39:46;;;;;;;4.10;2.20;;;27.90;87.60;;;;;;4920361;29;20808;-66
2022/10/17 13:42:22;;;;;;;7.57;2.53;;;27.90;88.70;;;;;;4920100;29;20575;-67
2022/10/17 13:44:49;;;;;;;4.37;2.07;;;27.90;89.80;;;;;;4920543;29;20449;-66
2022/10/17 13:47:23;;;;;;;5.17;2.80;;;27.90;85.90;;;;;;4920126;29;20521;-67
2022/10/17 13:49:51;;;;;;;2.43;2.20;;;27.80;85.60;;;;;;4920680;29;20516;-67
2022/10/17 13:52:20;;;;;;;7.23;3.10;;;27.60;85.60;;;;;;4920342;29;20882;-65
2022/10/17 13:54:50;;;;;;;5.33;2.20;;;27.50;89.10;;;;;;4920414;29;20516;-67
2022/10/17 13:57:19;;;;;;;2.87;1.87;;;27.40;86.90;;;;;;4920252;29;20520;-66
2022/10/17 13:59:49;;;;;;;3.33;1.70;;;27.30;85.00;;;;;;4920438;29;20907;-66
2022/10/17 14:02:19;;;;;;;2.70;2.47;;;27.30;85.50;;;;;;4919722;29;20489;-67
2022/10/17 14:04:45;;;;;;;2.67;2.10;;;27.20;85.50;;;;;;4920011;29;20461;-66
2022/10/17 14:07:26;;;;;;;4.60;2.30;;;27.10;84.40;;;;;;4920163;29;20512;-66
2022/10/17 14:09:54;;;;;;;4.17;2.30;;;27.20;86.10;;;;;;4920092;29;20448;-66
2022/10/17 14:12:22;;;;;;;5.97;2.40;;;27.10;86.20;;;;;;4920791;29;20533;-67
2022/10/17 14:14:52;;;;;;;6.60;2.50;;;27.00;85.80;;;;;;4928231;29;20480;-67
2022/10/17 14:17:23;;;;;;;4.80;2.27;;;27.00;86.90;;;;;;4930474;29;20441;-66
2022/10/17 14:19:52;;;;;;;4.37;2.33;;;26.90;89.60;;;;;;4922397;29;20445;-67
2022/10/17 14:22:27;;;;;;;3.00;2.20;;;26.90;89.40;;;;;;4920691;29;20569;-67
2022/10/17 14:24:56;;;;;;;2.20;2.10;;;26.80;89.00;;;;;;4920409;29;20500;-67
2022/10/17 14:27:28;;;;;;;11.80;2.47;;;26.80;89.80;;;;;;4919946;29;20953;-66
2022/10/17 14:29:59;;;;;;;6.47;2.30;;;26.80;90.20;;;;;;4920094;29;20465;-66
2022/10/17 14:32:27;;;;;;;4.37;2.03;;;26.70;90.30;;;;;;4919687;29;20981;-67
2022/10/17 14:34:56;;;;;;;3.73;2.10;;;26.60;87.90;;;;;;4920014;29;20516;-66
2022/10/17 14:37:31;;;;;;;7.70;2.40;;;26.50;88.50;;;;;;4924470;29;20453;-67
2022/10/17 14:40:01;;;;;;;2.37;2.17;;;26.40;87.10;;;;;;4936790;29;20461;-67
2022/10/17 14:42:28;;;;;;;3.07;2.07;;;26.30;88.10;;;;;;4936772;29;20473;-67
2022/10/17 14:44:59;;;;;;;2.33;2.20;;;26.30;88.90;;;;;;4933453;29;20509;-67
2022/10/17 14:47:27;;;;;;;4.10;2.30;;;26.30;91.00;;;;;;4920225;29;20449;-66
2022/10/17 14:50:04;;;;;;;7.73;2.40;;;26.30;89.80;;;;;;4919471;29;20869;-67
2022/10/17 14:52:32;;;;;;;3.57;2.10;;;26.20;90.40;;;;;;4919242;29;20532;-66
2022/10/17 14:55:17;;;;;;;4.83;2.50;;;26.10;90.30;;;;;;4919408;29;20457;-67
2022/10/17 14:57:45;;;;;;;7.17;3.07;;;26.10;90.60;;;;;;4919625;29;20491;-67
2022/10/17 15:00:16;;;;;;;2.50;2.30;;;26.10;90.90;;;;;;4919315;29;20956;-67
2022/10/17 15:02:44;;;;;;;2.73;2.40;;;26.00;92.00;;;;;;4919504;29;20928;-67
2022/10/17 15:05:10;;;;;;;4.27;3.00;;;25.90;92.40;;;;;;4919237;29;20960;-66
2022/10/17 15:07:37;;;;;;;4.37;2.80;;;25.80;90.40;;;;;;4918945;29;20453;-66
2022/10/17 15:10:06;;;;;;;4.33;2.47;;;25.70;90.80;;;;;;4918818;29;20454;-66
2022/10/17 15:12:33;;;;;;;6.00;2.53;;;25.50;91.80;;;;;;4918790;29;20828;-66
2022/10/17 15:15:07;;;;;;;5.77;3.30;;;25.40;92.10;;;;;;5171290;27;20731;-66
2022/10/17 15:17:34;;;;;;;3.33;2.43;;;25.20;91.60;;;;;;5153861;27;20495;-67
2022/10/17 15:20:00;;;;;;;3.03;2.57;;;25.10;92.30;;;;;;5153156;27;20458;-66
2022/10/17 15:22:27;;;;;;;5.73;2.60;;;25.00;93.00;;;;;;5153380;27;20462;-67
2022/10/17 15:24:54;;;;;;;3.10;2.47;;;25.00;93.40;;;;;;5153567;27;20442;-66
2022/10/17 15:27:22;;;;;;;5.67;2.90;;;24.90;94.10;;;;;;5153088;27;20830;-67
2022/10/17 15:29:50;;;;;;;5.27;2.87;;;24.80;95.40;;;;;;5153929;27;20854;-67
2022/10/17 15:32:18;;;;;;;8.83;3.40;;;24.70;96.40;;;;;;5153647;27;20463;-67
2022/10/17 15:34:45;;;;;;;4.47;2.90;;;24.60;97.90;;;;;;5153947;27;20515;-67
2022/10/17 15:37:19;;;;;;;14.23;4.73;;;24.50;97.90;;;;;;5153961;27;20458;-66
2022/10/17 15:39:51;;;;;;;16.90;6.10;;;24.30;98.40;;;;;;5154100;27;20434;-66
2022/10/17 15:42:18;;;;;;;18.47;7.17;;;24.30;97.10;;;;;;5152928;27;20466;-66
2022/10/17 15:44:48;;;;;;;7.03;3.73;;;24.20;97.50;;;;;;5152679;27;20439;-67
2022/10/17 15:47:23;;;;;;;5.33;2.60;;;24.20;98.40;;;;;;5152950;27;20446;-66
2022/10/17 15:49:49;;;;;;;3.93;2.93;;;24.20;99.10;;;;;;5154599;27;20470;-67
2022/10/17 15:52:16;;;;;;;3.53;2.83;;;24.10;99.40;;;;;;5153252;27;20980;-67
2022/10/17 15:54:43;;;;;;;3.93;2.73;;;24.10;99.90;;;;;;5160428;27;20519;-67
2022/10/17 15:57:17;;;;;;;5.23;2.70;;;24.00;99.90;;;;;;5165579;27;20454;-66
2022/10/17 15:59:45;;;;;;;3.77;2.80;;;24.00;99.90;;;;;;5166524;27;20834;-67
2022/10/17 16:02:14;;;;;;;4.30;2.50;;;24.00;99.90;;;;;;5166131;27;20538;-67
2022/10/17 16:04:42;;;;;;;2.93;2.73;;;23.90;99.90;;;;;;5167256;27;20466;-66
2022/10/17 16:07:10;;;;;;;4.30;2.60;;;23.80;99.90;;;;;;5166643;27;20496;-66
2022/10/17 16:09:37;;;;;;;7.87;3.53;;;23.80;99.90;;;;;;5153280;27;20507;-66
2022/10/17 16:12:05;;;;;;;3.80;3.00;;;23.70;99.90;;;;;;5153899;27;20466;-66
2022/10/17 16:14:33;;;;;;;3.90;3.33;;;23.60;99.90;;;;;;5152733;27;20500;-66
2022/10/17 16:17:00;;;;;;;6.20;3.53;;;23.50;99.90;;;;;;5153512;27;20956;-66
2022/10/17 16:19:28;;;;;;;3.50;2.83;;;23.40;99.90;;;;;;5153350;27;20486;-66
2022/10/17 16:21:59;;;;;;;4.90;3.07;;;23.30;99.90;;;;;;5152267;27;20509;-66
2022/10/17 16:24:26;;;;;;;5.07;3.37;;;23.10;99.90;;;;;;5150664;27;20500;-66
2022/10/17 16:26:53;;;;;;;5.27;3.47;;;23.10;99.90;;;;;;5137809;27;20967;-66
2022/10/17 16:29:20;;;;;;;6.93;4.43;;;23.00;99.90;;;;;;5138519;27;20857;-66
2022/10/17 16:31:47;;;;;;;7.83;4.10;;;22.90;99.90;;;;;;5137682;27;20496;-67
2022/10/17 16:34:15;;;;;;;8.97;3.67;;;22.80;99.90;;;;;;5137911;27;20471;-67
2022/10/17 16:36:42;;;;;;;7.67;3.37;;;22.70;99.90;;;;;;5137643;27;20455;-66
2022/10/17 16:39:10;;;;;;;5.07;3.30;;;22.60;99.90;;;;;;5138218;27;20520;-66
2022/10/17 16:41:38;;;;;;;4.97;3.20;;;22.50;99.90;;;;;;5138027;27;20475;-66
2022/10/17 16:44:07;;;;;;;4.63;3.20;;;22.50;99.90;;;;;;5137698;27;20930;-65
2022/10/17 16:46:36;;;;;;;5.97;3.07;;;22.40;99.90;;;;;;5138679;27;20459;-66
2022/10/17 16:49:04;;;;;;;3.47;3.17;;;22.30;99.90;;;;;;5137836;27;20479;-67
2022/10/17 16:51:32;;;;;;;7.00;3.60;;;22.30;99.90;;;;;;5137826;27;20516;-67
2022/10/17 16:53:59;;;;;;;4.07;3.40;;;22.20;99.90;;;;;;5137759;27;20566;-66
2022/10/17 16:56:31;;;;;;;6.93;4.00;;;22.10;99.90;;;;;;5137579;27;20444;-66
2022/10/17 16:58:58;;;;;;;6.43;3.43;;;22.00;99.90;;;;;;5137848;27;20539;-66
2022/10/17 17:01:28;;;;;;;7.43;3.77;;;21.90;99.90;;;;;;5137373;27;20470;-66